sensor_id;sensor_type;location;lat;lon;timestamp;P1;durP1;ratioP1;P2;durP2;ratioP2
17983;SDS011;9117;52.420;20.728;2023-04-01T00:00:49;48.30;;;24.57;;
17983;SDS011;9117;52.420;20.728;2023-04-01T00:03:18;49.80;;;24.65;;
17983;SDS011;9117;52.420;20.728;2023-04-01T00:05:47;44.03;;;23.40;;
17983;SDS011;9117;52.420;20.728;2023-04-01T00:08:17;49.07;;;24.60;;
17983;SDS011;9117;52.420;20.728;2023-04-01T00:10:45;51.27;;;23.50;;
17983;SDS011;9117;52.420;20.728;2023-04-01T00:13:13;48.97;;;24.30;;
17983;SDS011;9117;52.420;20.728;2023-04-01T00:15:42;51.33;;;25.33;;
17983;SDS011;9117;52.420;20.728;2023-04-01T00:18:11;54.03;;;24.37;;
17983;SDS011;9117;52.420;20.728;2023-04-01T00:20:42;51.27;;;24.73;;
17983;SDS011;9117;52.420;20.728;2023-04-01T00:23:11;53.13;;;26.67;;
17983;SDS011;9117;52.420;20.728;2023-04-01T00:25:42;52.27;;;26.03;;
17983;SDS011;9117;52.420;20.728;2023-04-01T00:28:11;55.30;;;28.17;;
17983;SDS011;9117;52.420;20.728;2023-04-01T00:30:39;52.87;;;25.57;;
17983;SDS011;9117;52.420;20.728;2023-04-01T00:33:08;54.97;;;24.70;;
17983;SDS011;9117;52.420;20.728;2023-04-01T00:35:37;51.90;;;26.50;;
17983;SDS011;9117;52.420;20.728;2023-04-01T00:38:05;50.20;;;25.20;;
17983;SDS011;9117;52.420;20.728;2023-04-01T00:40:34;52.73;;;25.80;;
17983;SDS011;9117;52.420;20.728;2023-04-01T00:43:09;59.07;;;26.03;;
17983;SDS011;9117;52.420;20.728;2023-04-01T00:45:40;56.23;;;26.90;;
17983;SDS011;9117;52.420;20.728;2023-04-01T00:48:11;60.23;;;25.57;;
17983;SDS011;9117;52.420;20.728;2023-04-01T00:50:44;65.13;;;26.00;;
17983;SDS011;9117;52.420;20.728;2023-04-01T00:53:16;65.73;;;27.63;;
17983;SDS011;9117;52.420;20.728;2023-04-01T00:55:49;62.53;;;25.70;;
17983;SDS011;9117;52.420;20.728;2023-04-01T00:58:23;70.33;;;27.90;;
17983;SDS011;9117;52.420;20.728;2023-04-01T01:00:53;59.97;;;25.83;;
17983;SDS011;9117;52.420;20.728;2023-04-01T01:03:22;74.40;;;27.87;;
17983;SDS011;9117;52.420;20.728;2023-04-01T01:05:55;66.30;;;25.80;;
17983;SDS011;9117;52.420;20.728;2023-04-01T01:11:39;66.63;;;27.20;;
17983;SDS011;9117;52.420;20.728;2023-04-01T01:14:13;69.37;;;28.03;;
17983;SDS011;9117;52.420;20.728;2023-04-01T01:16:53;66.03;;;27.03;;
17983;SDS011;9117;52.420;20.728;2023-04-01T01:19:33;70.10;;;26.40;;
17983;SDS011;9117;52.420;20.728;2023-04-01T01:22:22;72.70;;;25.47;;
17983;SDS011;9117;52.420;20.728;2023-04-01T01:25:12;77.77;;;26.63;;
17983;SDS011;9117;52.420;20.728;2023-04-01T01:27:49;68.93;;;25.77;;
17983;SDS011;9117;52.420;20.728;2023-04-01T01:30:33;73.77;;;26.37;;
17983;SDS011;9117;52.420;20.728;2023-04-01T01:33:12;81.33;;;27.73;;
17983;SDS011;9117;52.420;20.728;2023-04-01T01:36:05;79.70;;;28.43;;
17983;SDS011;9117;52.420;20.728;2023-04-01T01:38:37;69.33;;;26.67;;
17983;SDS011;9117;52.420;20.728;2023-04-01T01:41:07;76.33;;;26.93;;
17983;SDS011;9117;52.420;20.728;2023-04-01T01:43:39;73.87;;;26.47;;
17983;SDS011;9117;52.420;20.728;2023-04-01T01:46:11;76.33;;;26.67;;
17983;SDS011;9117;52.420;20.728;2023-04-01T01:48:43;70.33;;;26.47;;
17983;SDS011;9117;52.420;20.728;2023-04-01T01:51:14;69.80;;;26.13;;
17983;SDS011;9117;52.420;20.728;2023-04-01T01:53:43;70.63;;;26.20;;
17983;SDS011;9117;52.420;20.728;2023-04-01T01:56:11;76.43;;;26.80;;
17983;SDS011;9117;52.420;20.728;2023-04-01T01:58:42;64.17;;;25.40;;
17983;SDS011;9117;52.420;20.728;2023-04-01T02:01:13;69.93;;;25.33;;
17983;SDS011;9117;52.420;20.728;2023-04-01T02:03:45;66.63;;;25.80;;
17983;SDS011;9117;52.420;20.728;2023-04-01T02:06:17;73.83;;;25.63;;
17983;SDS011;9117;52.420;20.728;2023-04-01T02:08:47;69.70;;;26.13;;
17983;SDS011;9117;52.420;20.728;2023-04-01T02:11:19;58.67;;;24.17;;
17983;SDS011;9117;52.420;20.728;2023-04-01T02:13:55;63.57;;;25.70;;
17983;SDS011;9117;52.420;20.728;2023-04-01T02:16:29;69.40;;;24.30;;
17983;SDS011;9117;52.420;20.728;2023-04-01T02:19:01;59.63;;;25.30;;
17983;SDS011;9117;52.420;20.728;2023-04-01T02:21:35;56.67;;;25.00;;
17983;SDS011;9117;52.420;20.728;2023-04-01T02:24:06;65.50;;;25.27;;
17983;SDS011;9117;52.420;20.728;2023-04-01T02:26:37;57.63;;;23.87;;
17983;SDS011;9117;52.420;20.728;2023-04-01T02:29:06;56.80;;;22.87;;
17983;SDS011;9117;52.420;20.728;2023-04-01T02:31:38;55.03;;;25.17;;
17983;SDS011;9117;52.420;20.728;2023-04-01T02:34:07;59.77;;;23.17;;
17983;SDS011;9117;52.420;20.728;2023-04-01T02:36:37;59.63;;;24.17;;
17983;SDS011;9117;52.420;20.728;2023-04-01T02:39:06;62.10;;;24.57;;
17983;SDS011;9117;52.420;20.728;2023-04-01T02:41:38;56.37;;;23.57;;
17983;SDS011;9117;52.420;20.728;2023-04-01T02:44:07;56.23;;;23.30;;
17983;SDS011;9117;52.420;20.728;2023-04-01T02:46:36;52.93;;;22.77;;
17983;SDS011;9117;52.420;20.728;2023-04-01T02:49:04;60.00;;;23.53;;
17983;SDS011;9117;52.420;20.728;2023-04-01T02:51:33;52.97;;;21.57;;
17983;SDS011;9117;52.420;20.728;2023-04-01T02:54:03;59.80;;;23.67;;
17983;SDS011;9117;52.420;20.728;2023-04-01T02:56:31;61.23;;;24.37;;
17983;SDS011;9117;52.420;20.728;2023-04-01T02:59:00;55.47;;;23.30;;
17983;SDS011;9117;52.420;20.728;2023-04-01T03:01:28;56.07;;;22.43;;
17983;SDS011;9117;52.420;20.728;2023-04-01T03:03:56;53.87;;;22.10;;
17983;SDS011;9117;52.420;20.728;2023-04-01T03:06:24;55.93;;;22.53;;
17983;SDS011;9117;52.420;20.728;2023-04-01T03:08:52;53.53;;;22.33;;
17983;SDS011;9117;52.420;20.728;2023-04-01T03:11:22;51.63;;;20.83;;
17983;SDS011;9117;52.420;20.728;2023-04-01T03:13:52;54.77;;;22.37;;
17983;SDS011;9117;52.420;20.728;2023-04-01T03:16:20;56.83;;;22.23;;
17983;SDS011;9117;52.420;20.728;2023-04-01T03:18:48;51.37;;;21.77;;
17983;SDS011;9117;52.420;20.728;2023-04-01T03:21:19;58.90;;;23.73;;
17983;SDS011;9117;52.420;20.728;2023-04-01T03:23:48;59.27;;;22.53;;
17983;SDS011;9117;52.420;20.728;2023-04-01T03:26:17;60.43;;;23.20;;
17983;SDS011;9117;52.420;20.728;2023-04-01T03:28:47;53.67;;;21.87;;
17983;SDS011;9117;52.420;20.728;2023-04-01T03:31:15;55.93;;;22.27;;
17983;SDS011;9117;52.420;20.728;2023-04-01T03:33:45;60.63;;;23.67;;
17983;SDS011;9117;52.420;20.728;2023-04-01T03:36:14;52.50;;;21.93;;
17983;SDS011;9117;52.420;20.728;2023-04-01T03:38:42;55.83;;;22.20;;
17983;SDS011;9117;52.420;20.728;2023-04-01T03:41:12;57.50;;;21.83;;
17983;SDS011;9117;52.420;20.728;2023-04-01T03:43:41;60.50;;;22.53;;
17983;SDS011;9117;52.420;20.728;2023-04-01T03:46:11;55.83;;;21.63;;
17983;SDS011;9117;52.420;20.728;2023-04-01T03:48:43;54.77;;;22.40;;
17983;SDS011;9117;52.420;20.728;2023-04-01T03:51:12;53.37;;;21.53;;
17983;SDS011;9117;52.420;20.728;2023-04-01T03:53:40;51.17;;;21.53;;
17983;SDS011;9117;52.420;20.728;2023-04-01T03:56:08;58.07;;;22.10;;
17983;SDS011;9117;52.420;20.728;2023-04-01T03:58:49;58.60;;;22.80;;
17983;SDS011;9117;52.420;20.728;2023-04-01T04:01:31;53.37;;;22.40;;
17983;SDS011;9117;52.420;20.728;2023-04-01T04:04:00;55.23;;;21.20;;
17983;SDS011;9117;52.420;20.728;2023-04-01T04:06:30;58.03;;;21.77;;
17983;SDS011;9117;52.420;20.728;2023-04-01T04:08:58;54.17;;;23.43;;
17983;SDS011;9117;52.420;20.728;2023-04-01T04:11:26;52.90;;;22.33;;
17983;SDS011;9117;52.420;20.728;2023-04-01T04:13:57;51.17;;;21.47;;
17983;SDS011;9117;52.420;20.728;2023-04-01T04:16:26;56.30;;;23.03;;
17983;SDS011;9117;52.420;20.728;2023-04-01T04:18:55;50.13;;;21.93;;
17983;SDS011;9117;52.420;20.728;2023-04-01T04:21:24;45.33;;;19.47;;
17983;SDS011;9117;52.420;20.728;2023-04-01T04:23:52;51.07;;;20.60;;
17983;SDS011;9117;52.420;20.728;2023-04-01T04:26:20;43.37;;;18.83;;
17983;SDS011;9117;52.420;20.728;2023-04-01T04:28:49;43.27;;;19.90;;
17983;SDS011;9117;52.420;20.728;2023-04-01T04:31:18;46.70;;;20.53;;
17983;SDS011;9117;52.420;20.728;2023-04-01T04:33:47;51.03;;;22.57;;
17983;SDS011;9117;52.420;20.728;2023-04-01T04:36:17;52.40;;;23.90;;
17983;SDS011;9117;52.420;20.728;2023-04-01T04:38:46;54.80;;;24.60;;
17983;SDS011;9117;52.420;20.728;2023-04-01T04:41:15;58.07;;;24.87;;
17983;SDS011;9117;52.420;20.728;2023-04-01T04:43:48;59.33;;;27.57;;
17983;SDS011;9117;52.420;20.728;2023-04-01T04:46:18;52.57;;;24.90;;
17983;SDS011;9117;52.420;20.728;2023-04-01T04:48:47;55.73;;;25.93;;
17983;SDS011;9117;52.420;20.728;2023-04-01T04:51:17;55.60;;;24.90;;
17983;SDS011;9117;52.420;20.728;2023-04-01T04:53:46;53.63;;;24.27;;
17983;SDS011;9117;52.420;20.728;2023-04-01T04:56:18;53.80;;;25.10;;
17983;SDS011;9117;52.420;20.728;2023-04-01T04:58:47;49.80;;;23.50;;
17983;SDS011;9117;52.420;20.728;2023-04-01T05:01:15;50.87;;;23.67;;
17983;SDS011;9117;52.420;20.728;2023-04-01T05:03:44;52.43;;;23.20;;
17983;SDS011;9117;52.420;20.728;2023-04-01T05:06:13;50.43;;;24.03;;
17983;SDS011;9117;52.420;20.728;2023-04-01T05:08:44;43.53;;;21.53;;
17983;SDS011;9117;52.420;20.728;2023-04-01T05:11:13;47.23;;;21.83;;
17983;SDS011;9117;52.420;20.728;2023-04-01T05:13:42;47.13;;;23.13;;
17983;SDS011;9117;52.420;20.728;2023-04-01T05:16:12;41.80;;;21.23;;
17983;SDS011;9117;52.420;20.728;2023-04-01T05:18:42;44.77;;;21.57;;
17983;SDS011;9117;52.420;20.728;2023-04-01T05:21:11;40.70;;;20.93;;
17983;SDS011;9117;52.420;20.728;2023-04-01T05:23:41;42.17;;;20.53;;
17983;SDS011;9117;52.420;20.728;2023-04-01T05:26:11;42.60;;;20.73;;
17983;SDS011;9117;52.420;20.728;2023-04-01T05:28:41;39.77;;;19.57;;
17983;SDS011;9117;52.420;20.728;2023-04-01T05:31:09;37.93;;;19.60;;
17983;SDS011;9117;52.420;20.728;2023-04-01T05:33:39;35.07;;;18.60;;
17983;SDS011;9117;52.420;20.728;2023-04-01T05:36:08;32.03;;;17.27;;
17983;SDS011;9117;52.420;20.728;2023-04-01T05:38:38;38.73;;;18.90;;
17983;SDS011;9117;52.420;20.728;2023-04-01T05:41:08;37.50;;;18.30;;
17983;SDS011;9117;52.420;20.728;2023-04-01T05:43:41;35.10;;;18.03;;
17983;SDS011;9117;52.420;20.728;2023-04-01T05:46:10;32.63;;;16.43;;
17983;SDS011;9117;52.420;20.728;2023-04-01T05:48:40;31.77;;;17.00;;
17983;SDS011;9117;52.420;20.728;2023-04-01T05:51:11;27.43;;;15.20;;
17983;SDS011;9117;52.420;20.728;2023-04-01T05:53:42;27.83;;;14.57;;
17983;SDS011;9117;52.420;20.728;2023-04-01T05:56:12;28.57;;;14.83;;
17983;SDS011;9117;52.420;20.728;2023-04-01T05:58:41;27.80;;;13.33;;
17983;SDS011;9117;52.420;20.728;2023-04-01T06:01:10;25.90;;;14.27;;
17983;SDS011;9117;52.420;20.728;2023-04-01T06:03:41;23.07;;;12.90;;
17983;SDS011;9117;52.420;20.728;2023-04-01T06:06:11;25.30;;;12.47;;
17983;SDS011;9117;52.420;20.728;2023-04-01T06:08:42;22.97;;;12.33;;
17983;SDS011;9117;52.420;20.728;2023-04-01T06:11:16;20.73;;;11.67;;
17983;SDS011;9117;52.420;20.728;2023-04-01T06:13:53;18.47;;;9.67;;
17983;SDS011;9117;52.420;20.728;2023-04-01T06:16:35;19.70;;;10.80;;
17983;SDS011;9117;52.420;20.728;2023-04-01T06:19:16;19.73;;;10.70;;
17983;SDS011;9117;52.420;20.728;2023-04-01T06:22:02;19.47;;;10.83;;
17983;SDS011;9117;52.420;20.728;2023-04-01T06:24:47;18.60;;;11.50;;
17983;SDS011;9117;52.420;20.728;2023-04-01T06:27:30;16.73;;;9.63;;
17983;SDS011;9117;52.420;20.728;2023-04-01T06:30:23;19.33;;;10.13;;
17983;SDS011;9117;52.420;20.728;2023-04-01T06:33:06;17.10;;;10.27;;
17983;SDS011;9117;52.420;20.728;2023-04-01T06:35:56;16.97;;;9.50;;
17983;SDS011;9117;52.420;20.728;2023-04-01T06:38:46;15.57;;;9.27;;
17983;SDS011;9117;52.420;20.728;2023-04-01T06:41:32;15.40;;;9.00;;
17983;SDS011;9117;52.420;20.728;2023-04-01T06:44:11;14.93;;;8.47;;
17983;SDS011;9117;52.420;20.728;2023-04-01T06:46:47;14.83;;;8.13;;
17983;SDS011;9117;52.420;20.728;2023-04-01T06:49:23;12.83;;;7.87;;
17983;SDS011;9117;52.420;20.728;2023-04-01T06:52:11;14.73;;;7.53;;
17983;SDS011;9117;52.420;20.728;2023-04-01T06:54:49;15.73;;;7.30;;
17983;SDS011;9117;52.420;20.728;2023-04-01T06:57:23;11.90;;;6.97;;
17983;SDS011;9117;52.420;20.728;2023-04-01T06:59:59;10.50;;;6.50;;
17983;SDS011;9117;52.420;20.728;2023-04-01T07:02:32;10.77;;;6.90;;
17983;SDS011;9117;52.420;20.728;2023-04-01T07:05:05;10.63;;;5.60;;
17983;SDS011;9117;52.420;20.728;2023-04-01T07:07:38;8.23;;;5.83;;
17983;SDS011;9117;52.420;20.728;2023-04-01T07:10:10;10.52;;;5.90;;
17983;SDS011;9117;52.420;20.728;2023-04-01T07:12:45;8.57;;;5.40;;
17983;SDS011;9117;52.420;20.728;2023-04-01T07:15:20;10.00;;;5.70;;
17983;SDS011;9117;52.420;20.728;2023-04-01T07:17:52;9.30;;;5.87;;
17983;SDS011;9117;52.420;20.728;2023-04-01T07:20:25;9.00;;;5.83;;
17983;SDS011;9117;52.420;20.728;2023-04-01T07:22:56;10.87;;;5.40;;
17983;SDS011;9117;52.420;20.728;2023-04-01T07:25:27;7.60;;;5.03;;
17983;SDS011;9117;52.420;20.728;2023-04-01T07:28:00;9.00;;;5.00;;
17983;SDS011;9117;52.420;20.728;2023-04-01T07:30:33;10.03;;;4.80;;
17983;SDS011;9117;52.420;20.728;2023-04-01T07:33:15;7.90;;;5.33;;
17983;SDS011;9117;52.420;20.728;2023-04-01T07:35:49;9.07;;;5.20;;
17983;SDS011;9117;52.420;20.728;2023-04-01T07:38:26;9.23;;;5.10;;
17983;SDS011;9117;52.420;20.728;2023-04-01T07:41:03;9.60;;;5.40;;
17983;SDS011;9117;52.420;20.728;2023-04-01T07:43:49;10.60;;;5.80;;
17983;SDS011;9117;52.420;20.728;2023-04-01T07:46:29;11.97;;;5.60;;
17983;SDS011;9117;52.420;20.728;2023-04-01T07:49:08;8.50;;;4.87;;
17983;SDS011;9117;52.420;20.728;2023-04-01T07:51:42;7.47;;;4.90;;
17983;SDS011;9117;52.420;20.728;2023-04-01T07:54:17;6.70;;;4.70;;
17983;SDS011;9117;52.420;20.728;2023-04-01T07:56:55;6.97;;;5.10;;
17983;SDS011;9117;52.420;20.728;2023-04-01T07:59:30;7.17;;;4.53;;
17983;SDS011;9117;52.420;20.728;2023-04-01T08:02:08;8.00;;;4.83;;
17983;SDS011;9117;52.420;20.728;2023-04-01T08:04:51;8.30;;;5.10;;
17983;SDS011;9117;52.420;20.728;2023-04-01T08:07:27;9.70;;;5.27;;
17983;SDS011;9117;52.420;20.728;2023-04-01T08:09:59;8.70;;;5.20;;
17983;SDS011;9117;52.420;20.728;2023-04-01T08:12:35;8.77;;;5.60;;
17983;SDS011;9117;52.420;20.728;2023-04-01T08:15:15;10.27;;;5.67;;
17983;SDS011;9117;52.420;20.728;2023-04-01T08:17:54;10.43;;;6.00;;
17983;SDS011;9117;52.420;20.728;2023-04-01T08:20:33;11.67;;;6.77;;
17983;SDS011;9117;52.420;20.728;2023-04-01T08:23:07;15.07;;;7.07;;
17983;SDS011;9117;52.420;20.728;2023-04-01T08:25:42;12.70;;;7.57;;
17983;SDS011;9117;52.420;20.728;2023-04-01T08:28:17;18.63;;;9.10;;
17983;SDS011;9117;52.420;20.728;2023-04-01T08:30:51;19.00;;;9.20;;
17983;SDS011;9117;52.420;20.728;2023-04-01T08:33:24;13.40;;;7.87;;
17983;SDS011;9117;52.420;20.728;2023-04-01T08:35:55;18.60;;;10.20;;
17983;SDS011;9117;52.420;20.728;2023-04-01T08:38:28;17.40;;;10.27;;
17983;SDS011;9117;52.420;20.728;2023-04-01T08:41:07;20.80;;;10.43;;
17983;SDS011;9117;52.420;20.728;2023-04-01T08:44:04;19.67;;;11.03;;
17983;SDS011;9117;52.420;20.728;2023-04-01T08:47:08;20.23;;;11.53;;
17983;SDS011;9117;52.420;20.728;2023-04-01T08:49:53;20.50;;;10.57;;
17983;SDS011;9117;52.420;20.728;2023-04-01T08:52:35;23.23;;;11.87;;
17983;SDS011;9117;52.420;20.728;2023-04-01T08:55:16;18.53;;;10.20;;
17983;SDS011;9117;52.420;20.728;2023-04-01T09:01:24;20.73;;;11.73;;
17983;SDS011;9117;52.420;20.728;2023-04-01T09:04:12;23.97;;;11.90;;
17983;SDS011;9117;52.420;20.728;2023-04-01T09:06:57;25.77;;;12.80;;
17983;SDS011;9117;52.420;20.728;2023-04-01T09:09:48;20.00;;;10.50;;
17983;SDS011;9117;52.420;20.728;2023-04-01T09:12:37;22.10;;;12.73;;
17983;SDS011;9117;52.420;20.728;2023-04-01T09:27:44;14.83;;;8.10;;
17983;SDS011;9117;52.420;20.728;2023-04-01T09:33:38;17.13;;;10.00;;
17983;SDS011;9117;52.420;20.728;2023-04-01T09:36:31;17.27;;;10.00;;
17983;SDS011;9117;52.420;20.728;2023-04-01T09:39:18;21.50;;;11.57;;
17983;SDS011;9117;52.420;20.728;2023-04-01T09:42:07;14.20;;;8.60;;
17983;SDS011;9117;52.420;20.728;2023-04-01T09:44:58;16.30;;;9.47;;
17983;SDS011;9117;52.420;20.728;2023-04-01T09:47:34;16.37;;;9.50;;
17983;SDS011;9117;52.420;20.728;2023-04-01T09:50:26;16.80;;;9.03;;
17983;SDS011;9117;52.420;20.728;2023-04-01T09:53:03;15.20;;;8.80;;
17983;SDS011;9117;52.420;20.728;2023-04-01T09:58:58;15.17;;;8.10;;
17983;SDS011;9117;52.420;20.728;2023-04-01T10:05:17;13.17;;;7.57;;
17983;SDS011;9117;52.420;20.728;2023-04-01T10:14:23;12.17;;;7.47;;
17983;SDS011;9117;52.420;20.728;2023-04-01T10:17:26;13.07;;;7.10;;
17983;SDS011;9117;52.420;20.728;2023-04-01T10:20:40;16.50;;;9.47;;
17983;SDS011;9117;52.420;20.728;2023-04-01T10:23:27;12.50;;;7.87;;
17983;SDS011;9117;52.420;20.728;2023-04-01T10:29:30;12.43;;;7.33;;
17983;SDS011;9117;52.420;20.728;2023-04-01T10:32:38;19.77;;;9.83;;
17983;SDS011;9117;52.420;20.728;2023-04-01T10:35:39;13.07;;;7.17;;
17983;SDS011;9117;52.420;20.728;2023-04-01T10:38:47;13.47;;;7.20;;
17983;SDS011;9117;52.420;20.728;2023-04-01T10:41:46;11.63;;;7.00;;
17983;SDS011;9117;52.420;20.728;2023-04-01T10:44:55;12.83;;;6.70;;
17983;SDS011;9117;52.420;20.728;2023-04-01T10:47:53;10.13;;;6.23;;
17983;SDS011;9117;52.420;20.728;2023-04-01T10:51:04;9.43;;;6.00;;
17983;SDS011;9117;52.420;20.728;2023-04-01T10:56:52;10.53;;;6.13;;
17983;SDS011;9117;52.420;20.728;2023-04-01T11:03:13;14.10;;;6.33;;
17983;SDS011;9117;52.420;20.728;2023-04-01T11:09:36;10.93;;;5.83;;
17983;SDS011;9117;52.420;20.728;2023-04-01T11:12:31;11.40;;;6.07;;
17983;SDS011;9117;52.420;20.728;2023-04-01T11:18:41;9.63;;;6.13;;
17983;SDS011;9117;52.420;20.728;2023-04-01T11:21:42;12.30;;;7.10;;
17983;SDS011;9117;52.420;20.728;2023-04-01T11:24:27;12.63;;;7.33;;
17983;SDS011;9117;52.420;20.728;2023-04-01T11:27:20;13.03;;;7.83;;
17983;SDS011;9117;52.420;20.728;2023-04-01T11:30:09;17.43;;;10.10;;
17983;SDS011;9117;52.420;20.728;2023-04-01T11:32:46;12.03;;;7.03;;
17983;SDS011;9117;52.420;20.728;2023-04-01T11:35:39;9.55;;;5.70;;
17983;SDS011;9117;52.420;20.728;2023-04-01T11:38:42;6.43;;;4.50;;
17983;SDS011;9117;52.420;20.728;2023-04-01T11:41:26;6.07;;;3.70;;
17983;SDS011;9117;52.420;20.728;2023-04-01T11:44:08;4.80;;;3.40;;
17983;SDS011;9117;52.420;20.728;2023-04-01T11:47:02;6.30;;;4.43;;
17983;SDS011;9117;52.420;20.728;2023-04-01T11:50:11;5.43;;;3.53;;
17983;SDS011;9117;52.420;20.728;2023-04-01T11:52:54;7.13;;;4.75;;
17983;SDS011;9117;52.420;20.728;2023-04-01T11:55:54;7.30;;;4.50;;
17983;SDS011;9117;52.420;20.728;2023-04-01T12:01:26;5.90;;;3.97;;
17983;SDS011;9117;52.420;20.728;2023-04-01T12:04:33;7.10;;;4.60;;
17983;SDS011;9117;52.420;20.728;2023-04-01T12:07:12;4.18;;;2.60;;
17983;SDS011;9117;52.420;20.728;2023-04-01T12:09:49;3.85;;;2.00;;
17983;SDS011;9117;52.420;20.728;2023-04-01T12:12:29;4.27;;;2.47;;
17983;SDS011;9117;52.420;20.728;2023-04-01T12:15:21;5.27;;;2.57;;
17983;SDS011;9117;52.420;20.728;2023-04-01T12:17:58;4.93;;;3.33;;
17983;SDS011;9117;52.420;20.728;2023-04-01T12:20:38;4.18;;;2.72;;
17983;SDS011;9117;52.420;20.728;2023-04-01T12:23:27;4.45;;;2.70;;
17983;SDS011;9117;52.420;20.728;2023-04-01T12:26:22;5.40;;;3.37;;
17983;SDS011;9117;52.420;20.728;2023-04-01T12:32:15;4.55;;;2.55;;
17983;SDS011;9117;52.420;20.728;2023-04-01T12:34:54;5.93;;;2.80;;
17983;SDS011;9117;52.420;20.728;2023-04-01T12:37:32;3.75;;;2.42;;
17983;SDS011;9117;52.420;20.728;2023-04-01T12:43:27;6.40;;;2.63;;
17983;SDS011;9117;52.420;20.728;2023-04-01T12:46:32;5.93;;;3.43;;
17983;SDS011;9117;52.420;20.728;2023-04-01T12:49:22;6.83;;;3.27;;
17983;SDS011;9117;52.420;20.728;2023-04-01T12:52:07;7.60;;;3.37;;
17983;SDS011;9117;52.420;20.728;2023-04-01T12:57:46;5.67;;;3.60;;
17983;SDS011;9117;52.420;20.728;2023-04-01T13:00:44;5.60;;;3.90;;
17983;SDS011;9117;52.420;20.728;2023-04-01T13:03:28;6.20;;;4.03;;
17983;SDS011;9117;52.420;20.728;2023-04-01T13:09:12;4.67;;;3.40;;
17983;SDS011;9117;52.420;20.728;2023-04-01T13:12:03;5.57;;;3.33;;
17983;SDS011;9117;52.420;20.728;2023-04-01T13:15:06;4.90;;;3.30;;
17983;SDS011;9117;52.420;20.728;2023-04-01T13:17:50;5.20;;;3.20;;
17983;SDS011;9117;52.420;20.728;2023-04-01T13:20:32;4.03;;;2.60;;
17983;SDS011;9117;52.420;20.728;2023-04-01T13:23:11;6.77;;;3.37;;
17983;SDS011;9117;52.420;20.728;2023-04-01T13:25:53;6.63;;;3.65;;
17983;SDS011;9117;52.420;20.728;2023-04-01T13:28:40;6.40;;;3.83;;
17983;SDS011;9117;52.420;20.728;2023-04-01T13:31:21;7.43;;;4.20;;
17983;SDS011;9117;52.420;20.728;2023-04-01T13:34:03;6.07;;;4.20;;
17983;SDS011;9117;52.420;20.728;2023-04-01T13:36:44;8.07;;;4.33;;
17983;SDS011;9117;52.420;20.728;2023-04-01T13:39:27;7.00;;;4.75;;
17983;SDS011;9117;52.420;20.728;2023-04-01T13:42:12;8.73;;;4.50;;
17983;SDS011;9117;52.420;20.728;2023-04-01T13:44:46;7.53;;;4.87;;
17983;SDS011;9117;52.420;20.728;2023-04-01T13:47:41;7.03;;;4.55;;
17983;SDS011;9117;52.420;20.728;2023-04-01T13:51:01;7.13;;;4.50;;
17983;SDS011;9117;52.420;20.728;2023-04-01T13:53:58;6.90;;;4.45;;
17983;SDS011;9117;52.420;20.728;2023-04-01T13:56:42;7.00;;;3.57;;
17983;SDS011;9117;52.420;20.728;2023-04-01T13:59:27;7.50;;;4.28;;
17983;SDS011;9117;52.420;20.728;2023-04-01T14:02:11;6.87;;;3.80;;
17983;SDS011;9117;52.420;20.728;2023-04-01T14:04:56;6.20;;;3.60;;
17983;SDS011;9117;52.420;20.728;2023-04-01T14:07:44;5.47;;;3.23;;
17983;SDS011;9117;52.420;20.728;2023-04-01T14:10:25;6.03;;;3.43;;
17983;SDS011;9117;52.420;20.728;2023-04-01T14:13:03;5.93;;;4.10;;
17983;SDS011;9117;52.420;20.728;2023-04-01T14:15:48;4.97;;;3.03;;
17983;SDS011;9117;52.420;20.728;2023-04-01T14:18:33;3.85;;;2.90;;
17983;SDS011;9117;52.420;20.728;2023-04-01T14:21:25;5.63;;;3.00;;
17983;SDS011;9117;52.420;20.728;2023-04-01T14:30:01;4.20;;;2.63;;
17983;SDS011;9117;52.420;20.728;2023-04-01T14:32:56;3.90;;;2.63;;
17983;SDS011;9117;52.420;20.728;2023-04-01T14:35:37;4.23;;;2.60;;
17983;SDS011;9117;52.420;20.728;2023-04-01T14:38:20;4.83;;;3.10;;
17983;SDS011;9117;52.420;20.728;2023-04-01T14:41:00;5.70;;;3.33;;
17983;SDS011;9117;52.420;20.728;2023-04-01T14:43:41;4.80;;;3.00;;
17983;SDS011;9117;52.420;20.728;2023-04-01T14:47:03;4.68;;;2.80;;
17983;SDS011;9117;52.420;20.728;2023-04-01T14:49:49;3.90;;;2.83;;
17983;SDS011;9117;52.420;20.728;2023-04-01T14:52:24;3.70;;;2.80;;
17983;SDS011;9117;52.420;20.728;2023-04-01T14:54:57;4.50;;;3.10;;
17983;SDS011;9117;52.420;20.728;2023-04-01T14:57:27;5.30;;;3.47;;
17983;SDS011;9117;52.420;20.728;2023-04-01T14:59:59;6.70;;;3.43;;
17983;SDS011;9117;52.420;20.728;2023-04-01T15:02:42;5.50;;;3.50;;
17983;SDS011;9117;52.420;20.728;2023-04-01T15:05:23;7.13;;;3.50;;
17983;SDS011;9117;52.420;20.728;2023-04-01T15:08:11;7.07;;;3.87;;
17983;SDS011;9117;52.420;20.728;2023-04-01T15:10:48;6.93;;;4.57;;
17983;SDS011;9117;52.420;20.728;2023-04-01T15:13:32;6.20;;;4.07;;
17983;SDS011;9117;52.420;20.728;2023-04-01T15:16:23;5.93;;;4.10;;
17983;SDS011;9117;52.420;20.728;2023-04-01T15:19:00;7.07;;;4.30;;
17983;SDS011;9117;52.420;20.728;2023-04-01T15:21:49;9.37;;;4.30;;
17983;SDS011;9117;52.420;20.728;2023-04-01T15:24:28;7.90;;;4.53;;
17983;SDS011;9117;52.420;20.728;2023-04-01T15:27:27;8.13;;;4.60;;
17983;SDS011;9117;52.420;20.728;2023-04-01T15:33:10;6.27;;;4.00;;
17983;SDS011;9117;52.420;20.728;2023-04-01T15:35:50;4.67;;;3.10;;
17983;SDS011;9117;52.420;20.728;2023-04-01T15:38:29;5.07;;;2.90;;
17983;SDS011;9117;52.420;20.728;2023-04-01T15:41:04;5.20;;;3.10;;
17983;SDS011;9117;52.420;20.728;2023-04-01T15:43:43;5.30;;;3.53;;
17983;SDS011;9117;52.420;20.728;2023-04-01T15:46:19;7.90;;;3.83;;
17983;SDS011;9117;52.420;20.728;2023-04-01T15:49:01;7.73;;;4.17;;
17983;SDS011;9117;52.420;20.728;2023-04-01T15:54:39;7.30;;;3.97;;
17983;SDS011;9117;52.420;20.728;2023-04-01T15:57:44;6.17;;;3.40;;
17983;SDS011;9117;52.420;20.728;2023-04-01T16:00:26;5.40;;;3.33;;
17983;SDS011;9117;52.420;20.728;2023-04-01T16:06:03;5.47;;;3.40;;
17983;SDS011;9117;52.420;20.728;2023-04-01T16:11:39;5.93;;;3.17;;
17983;SDS011;9117;52.420;20.728;2023-04-01T16:14:17;5.17;;;3.10;;
17983;SDS011;9117;52.420;20.728;2023-04-01T16:17:00;5.03;;;3.27;;
17983;SDS011;9117;52.420;20.728;2023-04-01T16:19:51;7.30;;;3.67;;
17983;SDS011;9117;52.420;20.728;2023-04-01T16:22:23;7.47;;;4.00;;
17983;SDS011;9117;52.420;20.728;2023-04-01T16:24:59;7.93;;;4.03;;
17983;SDS011;9117;52.420;20.728;2023-04-01T16:27:42;7.07;;;3.40;;
17983;SDS011;9117;52.420;20.728;2023-04-01T16:30:26;6.53;;;3.50;;
17983;SDS011;9117;52.420;20.728;2023-04-01T16:33:03;7.60;;;3.70;;
17983;SDS011;9117;52.420;20.728;2023-04-01T16:35:43;6.37;;;3.10;;
17983;SDS011;9117;52.420;20.728;2023-04-01T16:38:18;7.17;;;4.10;;
17983;SDS011;9117;52.420;20.728;2023-04-01T16:40:53;7.13;;;3.70;;
17983;SDS011;9117;52.420;20.728;2023-04-01T16:43:37;6.57;;;4.03;;
17983;SDS011;9117;52.420;20.728;2023-04-01T16:46:15;6.87;;;4.67;;
17983;SDS011;9117;52.420;20.728;2023-04-01T16:49:05;8.13;;;4.10;;
17983;SDS011;9117;52.420;20.728;2023-04-01T16:51:52;7.60;;;4.03;;
17983;SDS011;9117;52.420;20.728;2023-04-01T16:54:27;5.67;;;3.90;;
17983;SDS011;9117;52.420;20.728;2023-04-01T16:57:02;6.47;;;4.00;;
17983;SDS011;9117;52.420;20.728;2023-04-01T16:59:44;8.40;;;4.80;;
17983;SDS011;9117;52.420;20.728;2023-04-01T17:02:16;7.07;;;3.97;;
17983;SDS011;9117;52.420;20.728;2023-04-01T17:04:48;6.70;;;4.00;;